Tokyo, Japan
Current Conditions -  °F | °C
As of 11:30 PM on Thursday 23 Oct 2014 (Local Time) from RJTT Reporting Station
Light Rain Light Rain  
Wind Chill: 57°   Ceiling: 2500
Heat Index: 57°   Visibility: 6mi
Dew Point: 52°   Wind: 13mph
Humidity: 82%   Direction: 360°N
Pressure: 30.12"   Gusts: NA
Location:  35.67°N, 139.77°E
Report Text: RJTT 231430Z 36011KT 9999 -RA FEW015 BKN025 14/11 Q1020 NOSIG RMK 1CU015 7SC025 A3013
Loading
Personal Weather Stations






























Interactive Weather Map
Tropical Storm Tracking
New forecast layout! Learn more

10-Day Weather Forecast

Advertisements
Track Severe Weather on mobile